sensor_id;sensor_type;location;lat;lon;timestamp;pressure;altitude;pressure_sealevel;temperature;humidity
58769;BME280;44536;47.474;19.056;2022-12-29T00:01:17;101196.94;;;-1.37;100.00
58769;BME280;44536;47.474;19.056;2022-12-29T00:04:19;101190.78;;;-1.31;100.00
58769;BME280;44536;47.474;19.056;2022-12-29T00:07:22;101196.06;;;-1.36;100.00
58769;BME280;44536;47.474;19.056;2022-12-29T00:10:24;101208.97;;;-1.29;100.00
58769;BME280;44536;47.474;19.056;2022-12-29T00:13:27;101209.03;;;-1.34;100.00
58769;BME280;44536;47.474;19.056;2022-12-29T00:16:48;101207.25;;;-1.29;100.00
58769;BME280;44536;47.474;19.056;2022-12-29T00:19:50;101200.25;;;-1.25;100.00
58769;BME280;44536;47.474;19.056;2022-12-29T00:23:12;101196.75;;;-1.24;100.00
58769;BME280;44536;47.474;19.056;2022-12-29T00:26:33;101203.00;;;-1.36;100.00
58769;BME280;44536;47.474;19.056;2022-12-29T00:29:54;101192.66;;;-1.41;100.00
58769;BME280;44536;47.474;19.056;2022-12-29T00:33:20;101196.13;;;-1.40;100.00
58769;BME280;44536;47.474;19.056;2022-12-29T00:36:42;101198.81;;;-1.48;100.00
58769;BME280;44536;47.474;19.056;2022-12-29T00:39:44;101197.94;;;-1.48;100.00
58769;BME280;44536;47.474;19.056;2022-12-29T00:43:06;101191.84;;;-1.46;100.00
58769;BME280;44536;47.474;19.056;2022-12-29T00:46:26;101194.50;;;-1.49;100.00
58769;BME280;44536;47.474;19.056;2022-12-29T00:49:30;101197.16;;;-1.53;100.00
58769;BME280;44536;47.474;19.056;2022-12-29T00:52:32;101198.84;;;-1.51;100.00
58769;BME280;44536;47.474;19.056;2022-12-29T00:55:38;101196.31;;;-1.55;100.00
58769;BME280;44536;47.474;19.056;2022-12-29T00:58:40;101204.19;;;-1.58;100.00
58769;BME280;44536;47.474;19.056;2022-12-29T01:01:44;101198.97;;;-1.57;100.00
58769;BME280;44536;47.474;19.056;2022-12-29T01:04:46;101197.28;;;-1.61;100.00
58769;BME280;44536;47.474;19.056;2022-12-29T01:07:50;101191.28;;;-1.68;100.00
58769;BME280;44536;47.474;19.056;2022-12-29T01:11:06;101193.84;;;-1.63;100.00
58769;BME280;44536;47.474;19.056;2022-12-29T01:14:09;101194.75;;;-1.65;100.00
58769;BME280;44536;47.474;19.056;2022-12-29T01:17:12;101190.31;;;-1.59;100.00
58769;BME280;44536;47.474;19.056;2022-12-29T01:20:15;101186.06;;;-1.66;100.00
58769;BME280;44536;47.474;19.056;2022-12-29T01:23:17;101191.28;;;-1.68;100.00
58769;BME280;44536;47.474;19.056;2022-12-29T01:26:20;101197.38;;;-1.69;100.00
58769;BME280;44536;47.474;19.056;2022-12-29T01:29:22;101198.22;;;-1.67;100.00
58769;BME280;44536;47.474;19.056;2022-12-29T01:32:25;101192.97;;;-1.62;100.00
58769;BME280;44536;47.474;19.056;2022-12-29T01:35:28;101188.66;;;-1.64;100.00
58769;BME280;44536;47.474;19.056;2022-12-29T01:38:34;101183.50;;;-1.68;100.00
58769;BME280;44536;47.474;19.056;2022-12-29T01:41:36;101181.78;;;-1.70;100.00
58769;BME280;44536;47.474;19.056;2022-12-29T01:44:58;101187.81;;;-1.67;100.00
58769;BME280;44536;47.474;19.056;2022-12-29T01:48:04;101191.34;;;-1.72;100.00
58769;BME280;44536;47.474;19.056;2022-12-29T01:51:10;101187.94;;;-1.76;100.00
58769;BME280;44536;47.474;19.056;2022-12-29T01:54:19;101177.47;;;-1.71;100.00
58769;BME280;44536;47.474;19.056;2022-12-29T01:57:29;101172.13;;;-1.60;100.00
58769;BME280;44536;47.474;19.056;2022-12-29T02:00:32;101173.06;;;-1.64;100.00
58769;BME280;44536;47.474;19.056;2022-12-29T02:03:36;101177.34;;;-1.62;100.00
58769;BME280;44536;47.474;19.056;2022-12-29T02:06:47;101166.16;;;-1.67;100.00
58769;BME280;44536;47.474;19.056;2022-12-29T02:09:54;101169.66;;;-1.71;100.00
58769;BME280;44536;47.474;19.056;2022-12-29T02:12:57;101166.22;;;-1.73;100.00
58769;BME280;44536;47.474;19.056;2022-12-29T02:16:21;101154.09;;;-1.74;100.00
58769;BME280;44536;47.474;19.056;2022-12-29T02:26:47;101159.25;;;-1.70;100.00
58769;BME280;44536;47.474;19.056;2022-12-29T02:30:33;101148.00;;;-1.70;100.00
58769;BME280;44536;47.474;19.056;2022-12-29T02:34:08;101147.16;;;-1.74;100.00
58769;BME280;44536;47.474;19.056;2022-12-29T02:44:11;101144.56;;;-1.72;100.00
58769;BME280;44536;47.474;19.056;2022-12-29T02:47:24;101142.63;;;-1.58;100.00
58769;BME280;44536;47.474;19.056;2022-12-29T02:51:34;101137.47;;;-1.61;100.00
58769;BME280;44536;47.474;19.056;2022-12-29T02:54:27;101143.19;;;-1.38;100.00
58769;BME280;44536;47.474;19.056;2022-12-29T02:57:45;101142.09;;;-1.21;100.00
58769;BME280;44536;47.474;19.056;2022-12-29T03:10:59;101127.00;;;-1.01;100.00
58769;BME280;44536;47.474;19.056;2022-12-29T03:18:06;101120.12;;;-0.54;100.00
58769;BME280;44536;47.474;19.056;2022-12-29T03:21:22;101118.59;;;-0.66;100.00
58769;BME280;44536;47.474;19.056;2022-12-29T03:24:52;101116.66;;;-0.55;100.00
58769;BME280;44536;47.474;19.056;2022-12-29T03:27:58;101121.66;;;-0.46;100.00
58769;BME280;44536;47.474;19.056;2022-12-29T03:31:03;101119.16;;;-0.52;100.00
58769;BME280;44536;47.474;19.056;2022-12-29T03:34:08;101107.22;;;-0.62;100.00
58769;BME280;44536;47.474;19.056;2022-12-29T03:37:15;101099.41;;;-0.62;100.00
58769;BME280;44536;47.474;19.056;2022-12-29T03:40:21;101090.78;;;-0.64;100.00
58769;BME280;44536;47.474;19.056;2022-12-29T03:43:26;101098.75;;;-0.73;100.00
58769;BME280;44536;47.474;19.056;2022-12-29T03:46:29;101098.13;;;-0.87;100.00
58769;BME280;44536;47.474;19.056;2022-12-29T03:49:31;101100.75;;;-0.89;100.00
58769;BME280;44536;47.474;19.056;2022-12-29T03:52:37;101094.78;;;-0.95;100.00
58769;BME280;44536;47.474;19.056;2022-12-29T03:55:41;101103.53;;;-1.00;100.00
58769;BME280;44536;47.474;19.056;2022-12-29T03:58:44;101097.50;;;-1.02;100.00
58769;BME280;44536;47.474;19.056;2022-12-29T04:01:48;101106.16;;;-1.01;100.00
58769;BME280;44536;47.474;19.056;2022-12-29T04:04:51;101105.28;;;-1.00;100.00
58769;BME280;44536;47.474;19.056;2022-12-29T04:07:53;101104.53;;;-1.05;100.00
58769;BME280;44536;47.474;19.056;2022-12-29T04:10:56;101105.44;;;-1.08;100.00
58769;BME280;44536;47.474;19.056;2022-12-29T04:13:58;101103.66;;;-1.06;100.00
58769;BME280;44536;47.474;19.056;2022-12-29T04:17:01;101105.47;;;-1.09;100.00
58769;BME280;44536;47.474;19.056;2022-12-29T04:20:04;101103.75;;;-1.10;100.00
58769;BME280;44536;47.474;19.056;2022-12-29T04:23:27;101109.00;;;-1.13;100.00
58769;BME280;44536;47.474;19.056;2022-12-29T04:26:29;101113.22;;;-1.06;100.00
58769;BME280;44536;47.474;19.056;2022-12-29T04:29:32;101104.41;;;-0.99;100.00
58769;BME280;44536;47.474;19.056;2022-12-29T04:32:35;101108.78;;;-1.03;100.00
58769;BME280;44536;47.474;19.056;2022-12-29T04:35:38;101103.66;;;-1.06;100.00
58769;BME280;44536;47.474;19.056;2022-12-29T04:38:40;101114.97;;;-1.08;100.00
58769;BME280;44536;47.474;19.056;2022-12-29T04:41:43;101111.53;;;-1.09;100.00
58769;BME280;44536;47.474;19.056;2022-12-29T04:44:46;101106.12;;;-0.98;100.00
58769;BME280;44536;47.474;19.056;2022-12-29T04:47:49;101115.66;;;-0.98;100.00
58769;BME280;44536;47.474;19.056;2022-12-29T04:50:54;101100.94;;;-1.00;100.00
58769;BME280;44536;47.474;19.056;2022-12-29T04:53:57;101094.87;;;-1.00;100.00
58769;BME280;44536;47.474;19.056;2022-12-29T04:57:01;101100.75;;;-0.89;100.00
58769;BME280;44536;47.474;19.056;2022-12-29T05:00:05;101111.13;;;-0.87;100.00
58769;BME280;44536;47.474;19.056;2022-12-29T05:03:10;101107.63;;;-0.85;100.00
58769;BME280;44536;47.474;19.056;2022-12-29T05:06:13;101105.81;;;-0.80;100.00
58769;BME280;44536;47.474;19.056;2022-12-29T05:09:16;101104.81;;;-0.73;100.00
58769;BME280;44536;47.474;19.056;2022-12-29T05:12:19;101109.09;;;-0.69;100.00
58769;BME280;44536;47.474;19.056;2022-12-29T05:15:22;101100.94;;;-0.52;100.00
58769;BME280;44536;47.474;19.056;2022-12-29T05:18:25;101109.53;;;-0.47;100.00
58769;BME280;44536;47.474;19.056;2022-12-29T05:21:28;101101.56;;;-0.39;100.00
58769;BME280;44536;47.474;19.056;2022-12-29T05:24:31;101099.59;;;-0.26;100.00
58769;BME280;44536;47.474;19.056;2022-12-29T05:27:35;101096.16;;;-0.28;100.00
58769;BME280;44536;47.474;19.056;2022-12-29T05:30:38;101094.44;;;-0.29;100.00
58769;BME280;44536;47.474;19.056;2022-12-29T05:33:41;101096.53;;;-0.48;100.00
58769;BME280;44536;47.474;19.056;2022-12-29T05:36:43;101105.16;;;-0.46;100.00
58769;BME280;44536;47.474;19.056;2022-12-29T05:39:46;101092.97;;;-0.44;100.00
58769;BME280;44536;47.474;19.056;2022-12-29T05:42:48;101101.72;;;-0.48;100.00
58769;BME280;44536;47.474;19.056;2022-12-29T05:45:52;101095.78;;;-0.53;100.00
58769;BME280;44536;47.474;19.056;2022-12-29T05:48:57;101092.31;;;-0.54;100.00
58769;BME280;44536;47.474;19.056;2022-12-29T05:51:59;101103.97;;;-0.75;100.00
58769;BME280;44536;47.474;19.056;2022-12-29T05:55:03;101089.38;;;-0.83;100.00
58769;BME280;44536;47.474;19.056;2022-12-29T05:58:05;101084.16;;;-0.83;100.00
58769;BME280;44536;47.474;19.056;2022-12-29T06:01:08;101073.00;;;-0.90;100.00
58769;BME280;44536;47.474;19.056;2022-12-29T06:04:12;101074.63;;;-0.84;100.00
58769;BME280;44536;47.474;19.056;2022-12-29T06:07:14;101077.31;;;-0.89;100.00
58769;BME280;44536;47.474;19.056;2022-12-29T06:10:17;101075.72;;;-0.96;100.00
58769;BME280;44536;47.474;19.056;2022-12-29T06:13:19;101082.50;;;-0.87;100.00
58769;BME280;44536;47.474;19.056;2022-12-29T06:16:22;101089.34;;;-0.82;100.00
58769;BME280;44536;47.474;19.056;2022-12-29T06:19:26;101086.81;;;-0.86;100.00
58769;BME280;44536;47.474;19.056;2022-12-29T06:22:28;101082.25;;;-0.74;100.00
58769;BME280;44536;47.474;19.056;2022-12-29T06:25:30;101084.19;;;-0.85;100.00
58769;BME280;44536;47.474;19.056;2022-12-29T06:28:34;101083.31;;;-0.84;100.00
58769;BME280;44536;47.474;19.056;2022-12-29T06:31:36;101076.44;;;-0.88;100.00
58769;BME280;44536;47.474;19.056;2022-12-29T06:34:39;101083.31;;;-0.84;100.00
58769;BME280;44536;47.474;19.056;2022-12-29T06:37:42;101080.50;;;-0.72;100.00
58769;BME280;44536;47.474;19.056;2022-12-29T06:40:45;101088.41;;;-0.78;100.00
58769;BME280;44536;47.474;19.056;2022-12-29T06:43:50;101089.06;;;-0.67;100.00
58769;BME280;44536;47.474;19.056;2022-12-29T06:46:53;101090.06;;;-0.74;100.00
58769;BME280;44536;47.474;19.056;2022-12-29T06:49:56;101097.69;;;-0.63;100.00
58769;BME280;44536;47.474;19.056;2022-12-29T06:52:58;101096.00;;;-0.65;100.00
58769;BME280;44536;47.474;19.056;2022-12-29T06:56:00;101100.31;;;-0.64;100.00
58769;BME280;44536;47.474;19.056;2022-12-29T06:59:03;101100.31;;;-0.63;100.00
58769;BME280;44536;47.474;19.056;2022-12-29T07:02:06;101100.16;;;-0.55;100.00
58769;BME280;44536;47.474;19.056;2022-12-29T07:05:09;101108.72;;;-0.50;100.00
58769;BME280;44536;47.474;19.056;2022-12-29T07:08:12;101105.19;;;-0.48;100.00
58769;BME280;44536;47.474;19.056;2022-12-29T07:11:15;101104.09;;;-0.35;100.00
58769;BME280;44536;47.474;19.056;2022-12-29T07:14:18;101106.56;;;-0.28;100.00
58769;BME280;44536;47.474;19.056;2022-12-29T07:17:21;101107.53;;;-0.34;100.00
58769;BME280;44536;47.474;19.056;2022-12-29T07:20:23;101121.87;;;-0.12;100.00
58769;BME280;44536;47.474;19.056;2022-12-29T07:23:28;101118.50;;;-0.17;100.00
58769;BME280;44536;47.474;19.056;2022-12-29T07:26:31;101117.25;;;0.01;100.00
58769;BME280;44536;47.474;19.056;2022-12-29T07:29:37;101113.84;;;-0.01;100.00
58769;BME280;44536;47.474;19.056;2022-12-29T07:32:40;101117.06;;;0.10;100.00
58769;BME280;44536;47.474;19.056;2022-12-29T07:35:43;101123.97;;;0.13;100.00
58769;BME280;44536;47.474;19.056;2022-12-29T07:38:45;101116.00;;;0.19;100.00
58769;BME280;44536;47.474;19.056;2022-12-29T07:41:47;101120.84;;;0.37;100.00
58769;BME280;44536;47.474;19.056;2022-12-29T07:44:51;101117.97;;;0.49;100.00
58769;BME280;44536;47.474;19.056;2022-12-29T07:47:55;101105.78;;;0.50;99.66
58769;BME280;44536;47.474;19.056;2022-12-29T07:50:57;101124.50;;;0.67;98.99
58769;BME280;44536;47.474;19.056;2022-12-29T07:54:00;101122.66;;;0.71;98.43
58769;BME280;44536;47.474;19.056;2022-12-29T07:57:03;101120.75;;;0.79;98.64
58769;BME280;44536;47.474;19.056;2022-12-29T08:00:06;101117.44;;;0.71;98.00
58769;BME280;44536;47.474;19.056;2022-12-29T08:03:12;101110.94;;;0.88;97.70
58769;BME280;44536;47.474;19.056;2022-12-29T08:06:15;101133.53;;;0.89;97.26
58769;BME280;44536;47.474;19.056;2022-12-29T08:09:17;101120.31;;;0.97;96.87
58769;BME280;44536;47.474;19.056;2022-12-29T08:12:25;101118.41;;;1.04;96.09
58769;BME280;44536;47.474;19.056;2022-12-29T08:15:27;101120.41;;;0.92;96.39
58769;BME280;44536;47.474;19.056;2022-12-29T08:18:34;101112.53;;;0.94;96.42
58769;BME280;44536;47.474;19.056;2022-12-29T08:21:36;101119.13;;;1.09;95.99
58769;BME280;44536;47.474;19.056;2022-12-29T08:24:38;101114.56;;;1.17;95.51
58769;BME280;44536;47.474;19.056;2022-12-29T08:27:41;101111.72;;;1.26;94.09
58769;BME280;44536;47.474;19.056;2022-12-29T08:30:43;101111.41;;;1.38;93.82
58769;BME280;44536;47.474;19.056;2022-12-29T08:33:46;101099.75;;;1.17;93.82
58769;BME280;44536;47.474;19.056;2022-12-29T08:36:48;101097.22;;;1.14;93.92
58769;BME280;44536;47.474;19.056;2022-12-29T08:39:50;101094.16;;;1.31;93.72
58769;BME280;44536;47.474;19.056;2022-12-29T08:42:53;101096.50;;;1.42;93.76
58769;BME280;44536;47.474;19.056;2022-12-29T08:45:57;101101.91;;;1.66;92.00
58769;BME280;44536;47.474;19.056;2022-12-29T08:48:59;101094.31;;;1.57;92.72
58769;BME280;44536;47.474;19.056;2022-12-29T08:52:02;101095.22;;;1.56;92.57
58769;BME280;44536;47.474;19.056;2022-12-29T08:55:05;101102.94;;;2.21;90.52
58769;BME280;44536;47.474;19.056;2022-12-29T08:58:07;101106.91;;;2.35;89.22
58769;BME280;44536;47.474;19.056;2022-12-29T09:01:10;101093.91;;;2.31;89.24
58769;BME280;44536;47.474;19.056;2022-12-29T09:04:13;101096.59;;;2.28;88.17
58769;BME280;44536;47.474;19.056;2022-12-29T09:07:18;101082.75;;;2.25;88.51
58769;BME280;44536;47.474;19.056;2022-12-29T09:10:20;101098.16;;;2.06;88.01
58769;BME280;44536;47.474;19.056;2022-12-29T09:13:23;101080.34;;;1.89;89.82
58769;BME280;44536;47.474;19.056;2022-12-29T09:16:25;101078.59;;;1.90;90.40
58769;BME280;44536;47.474;19.056;2022-12-29T09:19:29;101078.88;;;1.79;90.63
58769;BME280;44536;47.474;19.056;2022-12-29T09:22:32;101078.72;;;1.85;90.46
58769;BME280;44536;47.474;19.056;2022-12-29T09:25:34;101073.44;;;1.87;90.41
58769;BME280;44536;47.474;19.056;2022-12-29T09:28:36;101062.00;;;1.91;90.29
58769;BME280;44536;47.474;19.056;2022-12-29T09:31:39;101060.56;;;2.09;90.09
58769;BME280;44536;47.474;19.056;2022-12-29T09:34:41;101067.50;;;2.39;89.02
58769;BME280;44536;47.474;19.056;2022-12-29T09:37:44;101063.59;;;2.52;86.41
58769;BME280;44536;47.474;19.056;2022-12-29T09:41:14;101064.84;;;2.41;86.24
58769;BME280;44536;47.474;19.056;2022-12-29T09:44:46;101059.41;;;2.19;87.07
58769;BME280;44536;47.474;19.056;2022-12-29T09:47:50;101046.94;;;2.27;87.40
58769;BME280;44536;47.474;19.056;2022-12-29T09:50:58;101045.59;;;2.42;86.22
58769;BME280;44536;47.474;19.056;2022-12-29T09:54:19;101049.84;;;2.46;86.83
58769;BME280;44536;47.474;19.056;2022-12-29T09:57:27;101046.66;;;2.62;86.32
58769;BME280;44536;47.474;19.056;2022-12-29T10:00:39;101047.19;;;2.74;84.77
58769;BME280;44536;47.474;19.056;2022-12-29T10:03:56;101037.69;;;2.70;85.12
58769;BME280;44536;47.474;19.056;2022-12-29T10:10:38;101033.06;;;2.78;84.73
58769;BME280;44536;47.474;19.056;2022-12-29T10:14:10;101026.69;;;2.86;84.92
58769;BME280;44536;47.474;19.056;2022-12-29T10:17:27;101018.03;;;2.58;86.37
58769;BME280;44536;47.474;19.056;2022-12-29T10:24:04;101018.88;;;2.85;85.14
58769;BME280;44536;47.474;19.056;2022-12-29T10:27:13;101011.62;;;2.93;85.11
58769;BME280;44536;47.474;19.056;2022-12-29T10:30:18;101020.53;;;3.12;83.79
58769;BME280;44536;47.474;19.056;2022-12-29T10:33:29;101008.97;;;3.18;83.41
58769;BME280;44536;47.474;19.056;2022-12-29T10:36:43;100999.34;;;3.18;83.27
58769;BME280;44536;47.474;19.056;2022-12-29T10:39:51;101007.50;;;3.11;83.59
58769;BME280;44536;47.474;19.056;2022-12-29T10:42:57;101014.28;;;3.16;82.84
58769;BME280;44536;47.474;19.056;2022-12-29T10:46:02;101008.56;;;3.05;84.13
58769;BME280;44536;47.474;19.056;2022-12-29T10:49:14;101008.03;;;2.95;83.82
58769;BME280;44536;47.474;19.056;2022-12-29T10:52:23;101004.75;;;2.89;83.96
58769;BME280;44536;47.474;19.056;2022-12-29T10:55:36;101005.50;;;2.92;84.09
58769;BME280;44536;47.474;19.056;2022-12-29T10:58:41;100997.22;;;2.80;85.46
58769;BME280;44536;47.474;19.056;2022-12-29T11:02:06;100991.47;;;2.69;85.48
58769;BME280;44536;47.474;19.056;2022-12-29T11:08:52;100978.53;;;2.64;86.46
58769;BME280;44536;47.474;19.056;2022-12-29T11:11:55;100987.25;;;2.64;86.32
58769;BME280;44536;47.474;19.056;2022-12-29T11:18:30;100985.34;;;2.70;86.28
58769;BME280;44536;47.474;19.056;2022-12-29T11:21:36;100985.97;;;2.76;86.10
58769;BME280;44536;47.474;19.056;2022-12-29T11:24:45;100989.81;;;2.66;86.04
58769;BME280;44536;47.474;19.056;2022-12-29T11:28:14;100981.06;;;2.67;85.95
58769;BME280;44536;47.474;19.056;2022-12-29T11:31:18;100973.59;;;2.81;85.69
58769;BME280;44536;47.474;19.056;2022-12-29T11:34:31;100970.13;;;2.81;85.89
58769;BME280;44536;47.474;19.056;2022-12-29T11:37:39;100960.44;;;2.83;86.66
58769;BME280;44536;47.474;19.056;2022-12-29T11:40:42;100961.31;;;2.83;85.98
58769;BME280;44536;47.474;19.056;2022-12-29T11:43:44;100957.84;;;3.08;85.63
58769;BME280;44536;47.474;19.056;2022-12-29T11:46:49;100946.94;;;4.52;79.45
58769;BME280;44536;47.474;19.056;2022-12-29T11:49:56;100949.94;;;6.36;72.52
58769;BME280;44536;47.474;19.056;2022-12-29T11:59:43;100939.19;;;10.07;55.86
58769;BME280;44536;47.474;19.056;2022-12-29T12:02:56;100941.69;;;10.89;54.04
58769;BME280;44536;47.474;19.056;2022-12-29T12:06:02;100946.19;;;10.62;53.89
58769;BME280;44536;47.474;19.056;2022-12-29T12:09:10;100940.19;;;10.98;52.69
58769;BME280;44536;47.474;19.056;2022-12-29T12:15:51;100944.50;;;10.74;52.54
58769;BME280;44536;47.474;19.056;2022-12-29T12:19:09;100936.94;;;10.01;53.81
58769;BME280;44536;47.474;19.056;2022-12-29T12:29:22;100939.94;;;6.42;65.96
58769;BME280;44536;47.474;19.056;2022-12-29T12:39:26;100902.63;;;5.23;72.42
58769;BME280;44536;47.474;19.056;2022-12-29T12:45:49;100879.06;;;5.59;72.11
58769;BME280;44536;47.474;19.056;2022-12-29T12:55:39;100881.00;;;6.62;68.47
58769;BME280;44536;47.474;19.056;2022-12-29T13:05:50;100886.12;;;5.94;71.02
58769;BME280;44536;47.474;19.056;2022-12-29T13:09:11;100888.69;;;5.77;72.03
58769;BME280;44536;47.474;19.056;2022-12-29T13:31:33;100894.25;;;4.76;77.66
58769;BME280;44536;47.474;19.056;2022-12-29T13:41:19;100905.72;;;5.89;73.83
58769;BME280;44536;47.474;19.056;2022-12-29T13:44:34;100906.06;;;6.00;73.25
58769;BME280;44536;47.474;19.056;2022-12-29T13:51:09;100910.28;;;5.48;74.70
58769;BME280;44536;47.474;19.056;2022-12-29T13:55:00;100906.06;;;5.25;76.09
58769;BME280;44536;47.474;19.056;2022-12-29T14:01:34;100908.00;;;4.62;78.47
58769;BME280;44536;47.474;19.056;2022-12-29T14:04:55;100915.84;;;4.42;79.57
58769;BME280;44536;47.474;19.056;2022-12-29T14:08:00;100914.97;;;4.21;80.91
58769;BME280;44536;47.474;19.056;2022-12-29T14:11:09;100913.91;;;4.05;81.60
58769;BME280;44536;47.474;19.056;2022-12-29T14:14:25;100921.72;;;3.84;82.78
58769;BME280;44536;47.474;19.056;2022-12-29T14:17:30;100922.13;;;3.74;83.22
58769;BME280;44536;47.474;19.056;2022-12-29T14:20:33;100919.09;;;3.62;84.63
58769;BME280;44536;47.474;19.056;2022-12-29T14:26:44;100920.41;;;3.51;85.35
58769;BME280;44536;47.474;19.056;2022-12-29T14:29:51;100910.78;;;3.28;86.82
58769;BME280;44536;47.474;19.056;2022-12-29T14:33:12;100913.34;;;3.06;87.79
58769;BME280;44536;47.474;19.056;2022-12-29T14:36:25;100908.31;;;3.00;88.38
58769;BME280;44536;47.474;19.056;2022-12-29T14:42:37;100912.03;;;2.94;89.49
58769;BME280;44536;47.474;19.056;2022-12-29T14:45:42;100916.50;;;2.66;91.15
58769;BME280;44536;47.474;19.056;2022-12-29T14:48:45;100914.00;;;2.63;91.79
58769;BME280;44536;47.474;19.056;2022-12-29T14:51:48;100917.00;;;2.52;92.88
58769;BME280;44536;47.474;19.056;2022-12-29T14:54:52;100927.22;;;2.60;92.82
58769;BME280;44536;47.474;19.056;2022-12-29T14:58:00;100927.53;;;2.51;93.39
58769;BME280;44536;47.474;19.056;2022-12-29T15:01:03;100925.88;;;2.48;93.50
58769;BME280;44536;47.474;19.056;2022-12-29T15:04:22;100926.16;;;2.39;93.75
58769;BME280;44536;47.474;19.056;2022-12-29T15:07:26;100920.59;;;2.23;95.20
58769;BME280;44536;47.474;19.056;2022-12-29T15:10:37;100917.22;;;2.20;95.20
58769;BME280;44536;47.474;19.056;2022-12-29T15:13:43;100921.59;;;2.19;95.90
58769;BME280;44536;47.474;19.056;2022-12-29T15:16:46;100924.44;;;2.12;96.20
58769;BME280;44536;47.474;19.056;2022-12-29T15:19:48;100935.47;;;1.95;97.24
58769;BME280;44536;47.474;19.056;2022-12-29T15:22:56;100946.75;;;1.97;97.74
58769;BME280;44536;47.474;19.056;2022-12-29T15:26:02;100940.25;;;1.81;99.32
58769;BME280;44536;47.474;19.056;2022-12-29T15:29:04;100941.31;;;1.75;98.92
58769;BME280;44536;47.474;19.056;2022-12-29T15:32:25;100951.69;;;1.78;98.47
58769;BME280;44536;47.474;19.056;2022-12-29T15:35:36;100937.59;;;1.82;97.67
58769;BME280;44536;47.474;19.056;2022-12-29T15:38:39;100939.47;;;1.79;97.46
58769;BME280;44536;47.474;19.056;2022-12-29T15:41:55;100939.63;;;1.73;97.36
58769;BME280;44536;47.474;19.056;2022-12-29T15:45:11;100942.84;;;1.54;98.39
58769;BME280;44536;47.474;19.056;2022-12-29T15:48:23;100947.09;;;1.57;98.64
58769;BME280;44536;47.474;19.056;2022-12-29T15:51:29;100948.84;;;1.56;98.86
58769;BME280;44536;47.474;19.056;2022-12-29T15:54:33;100949.00;;;1.52;98.81
58769;BME280;44536;47.474;19.056;2022-12-29T15:57:41;100948.91;;;1.55;98.94
58769;BME280;44536;47.474;19.056;2022-12-29T16:00:54;100940.75;;;1.36;99.91
58769;BME280;44536;47.474;19.056;2022-12-29T16:04:04;100943.75;;;1.22;100.00
58769;BME280;44536;47.474;19.056;2022-12-29T16:10:46;100943.72;;;1.24;100.00
58769;BME280;44536;47.474;19.056;2022-12-29T16:13:50;100941.06;;;1.25;100.00
58769;BME280;44536;47.474;19.056;2022-12-29T16:16:57;100937.06;;;1.12;100.00
58769;BME280;44536;47.474;19.056;2022-12-29T16:20:22;100943.91;;;1.16;100.00
58769;BME280;44536;47.474;19.056;2022-12-29T16:23:28;100937.09;;;1.11;100.00
58769;BME280;44536;47.474;19.056;2022-12-29T16:26:31;100956.38;;;1.07;100.00
58769;BME280;44536;47.474;19.056;2022-12-29T16:29:34;100955.06;;;0.92;100.00
58769;BME280;44536;47.474;19.056;2022-12-29T16:32:46;100950.66;;;0.94;100.00
58769;BME280;44536;47.474;19.056;2022-12-29T16:35:48;100950.00;;;0.86;100.00
58769;BME280;44536;47.474;19.056;2022-12-29T16:42:43;100953.72;;;0.77;100.00
58769;BME280;44536;47.474;19.056;2022-12-29T16:48:56;100966.03;;;0.72;100.00
58769;BME280;44536;47.474;19.056;2022-12-29T16:51:59;100968.50;;;0.77;100.00
58769;BME280;44536;47.474;19.056;2022-12-29T16:55:02;100972.72;;;0.82;100.00
58769;BME280;44536;47.474;19.056;2022-12-29T16:58:05;100962.63;;;0.69;100.00
58769;BME280;44536;47.474;19.056;2022-12-29T17:01:08;100965.59;;;0.55;100.00
58769;BME280;44536;47.474;19.056;2022-12-29T17:04:16;100968.34;;;0.50;100.00
58769;BME280;44536;47.474;19.056;2022-12-29T17:07:21;100972.00;;;0.43;100.00
58769;BME280;44536;47.474;19.056;2022-12-29T17:10:24;100963.56;;;0.32;100.00
58769;BME280;44536;47.474;19.056;2022-12-29T17:13:46;100975.91;;;0.25;100.00
58769;BME280;44536;47.474;19.056;2022-12-29T17:16:49;100970.62;;;0.28;100.00
58769;BME280;44536;47.474;19.056;2022-12-29T17:19:55;100964.34;;;0.36;100.00
58769;BME280;44536;47.474;19.056;2022-12-29T17:23:01;100971.41;;;0.32;100.00
58769;BME280;44536;47.474;19.056;2022-12-29T17:26:12;100965.41;;;0.28;100.00
58769;BME280;44536;47.474;19.056;2022-12-29T17:29:36;100966.63;;;0.14;100.00
58769;BME280;44536;47.474;19.056;2022-12-29T17:32:40;100963.97;;;0.15;100.00
58769;BME280;44536;47.474;19.056;2022-12-29T17:35:43;100958.72;;;0.17;100.00
58769;BME280;44536;47.474;19.056;2022-12-29T17:38:51;100958.81;;;0.12;100.00
58769;BME280;44536;47.474;19.056;2022-12-29T17:41:53;100960.69;;;0.07;100.00
58769;BME280;44536;47.474;19.056;2022-12-29T17:44:56;100952.03;;;0.05;100.00
58769;BME280;44536;47.474;19.056;2022-12-29T17:47:59;100967.44;;;0.16;100.00
58769;BME280;44536;47.474;19.056;2022-12-29T17:51:03;100966.63;;;0.14;100.00
58769;BME280;44536;47.474;19.056;2022-12-29T17:54:05;100965.81;;;0.10;100.00
58769;BME280;44536;47.474;19.056;2022-12-29T17:57:13;100954.19;;;0.25;100.00
58769;BME280;44536;47.474;19.056;2022-12-29T18:00:18;100951.91;;;0.11;100.00
58769;BME280;44536;47.474;19.056;2022-12-29T18:03:33;100961.19;;;0.23;100.00
58769;BME280;44536;47.474;19.056;2022-12-29T18:06:36;100966.47;;;0.20;100.00
58769;BME280;44536;47.474;19.056;2022-12-29T18:09:38;100957.91;;;0.15;100.00
58769;BME280;44536;47.474;19.056;2022-12-29T18:12:43;100954.66;;;0.05;100.00
58769;BME280;44536;47.474;19.056;2022-12-29T18:15:46;100950.19;;;0.10;100.00
58769;BME280;44536;47.474;19.056;2022-12-29T18:18:48;100946.69;;;0.11;100.00